Time;durP1;ratioP1;P1;durP2;ratioP2;P2;SDS_P1;SDS_P2;PMS_P1;PMS_P2;Temp;Humidity;BMP_temperature;BMP_pressure;BME280_temperature;BME280_humidity;BME280_pressure;Samples;Min_cycle;Max_cycle;Signal;HPM_P1;HPM_P2
2022/03/23 00:01:30;;;;;;;5.50;3.57;;;;;;;5.52;57.72;98216.66;6163281;23;20611;-93
2022/03/23 00:03:58;;;;;;;10.13;3.90;;;;;;;5.42;58.36;98197.03;6168733;23;20169;-95
2022/03/23 00:06:25;;;;;;;7.67;3.73;;;;;;;5.53;57.21;98202.94;6173952;23;20612;-89
2022/03/23 00:08:53;;;;;;;5.80;3.30;;;;;;;5.36;56.81;98169.66;6174332;23;20179;-95
2022/03/23 00:11:20;;;;;;;6.27;4.10;;;;;;;5.12;58.25;98184.38;6159941;23;20527;-96
2022/03/23 00:13:49;;;;;;;9.13;4.60;;;;;;;4.92;58.56;98154.53;6148439;23;20180;-91
2022/03/23 00:16:18;;;;;;;7.37;3.53;;;;;;;5.07;58.72;98160.47;6178693;23;20197;-94
2022/03/23 00:18:45;;;;;;;5.60;3.23;;;;;;;5.07;59.07;98170.75;6180368;23;20184;-86
2022/03/23 00:21:12;;;;;;;5.10;3.00;;;;;;;5.12;59.08;98156.16;6180511;23;20180;-86
2022/03/23 00:23:42;;;;;;;6.07;3.27;;;;;;;5.31;58.48;98189.41;6180706;23;20183;-87
2022/03/23 00:26:12;;;;;;;5.53;4.00;;;;;;;4.78;58.15;98107.59;6175886;23;20172;-87
2022/03/23 00:28:40;;;;;;;10.67;4.30;;;;;;;5.28;58.73;98193.69;6176778;23;20213;-89
2022/03/23 00:31:09;;;;;;;5.00;2.60;;;;;;;5.37;54.13;98191.06;6151605;23;20180;-95
2022/03/23 00:33:38;;;;;;;6.60;4.20;;;;;;;5.37;56.17;98191.94;6146185;23;20177;-92
2022/03/23 00:36:09;;;;;;;4.97;2.80;;;;;;;4.97;57.34;98198.16;6170043;23;20196;-88
2022/03/23 00:38:38;;;;;;;7.07;3.00;;;;;;;4.83;58.01;98172.56;6160974;23;20166;-86
2022/03/23 00:41:10;;;;;;;6.80;4.10;;;;;;;4.65;58.18;98157.28;6166627;23;20206;-86
2022/03/23 00:43:39;;;;;;;10.57;3.80;;;;;;;4.44;57.62;98116.34;6166113;23;20176;-90
2022/03/23 00:46:06;;;;;;;5.97;3.10;;;;;;;4.65;56.29;98123.94;6141577;23;20805;-96
2022/03/23 00:48:36;;;;;;;4.87;2.90;;;;;;;5.16;55.84;98186.06;6156246;23;20166;-87
2022/03/23 00:51:06;;;;;;;3.67;2.73;;;;;;;5.25;54.76;98189.44;6154888;23;20217;-86
2022/03/23 00:53:34;;;;;;;8.00;2.50;;;;;;;5.40;55.41;98193.63;6155993;23;20158;-86
2022/03/23 00:56:01;;;;;;;5.40;2.83;;;;;;;5.08;56.12;98136.50;6179230;23;20210;-87
2022/03/23 00:58:29;;;;;;;5.37;3.20;;;;;;;5.16;54.74;98135.59;6180348;23;20181;-87
2022/03/23 01:00:58;;;;;;;8.67;3.23;;;;;;;5.42;55.59;98181.63;6175297;23;20229;-90
2022/03/23 01:03:26;;;;;;;7.87;2.67;;;;;;;5.27;55.17;98184.28;6168684;23;20173;-94
2022/03/23 01:05:54;;;;;;;5.03;2.77;;;;;;;5.24;55.70;98189.44;6150178;23;20191;-88
2022/03/23 01:08:21;;;;;;;6.07;2.50;;;;;;;5.29;55.38;98180.00;6153577;23;20189;-90
2022/03/23 01:10:48;;;;;;;6.13;3.17;;;;;;;4.91;56.28;98109.22;6180402;23;20214;-92
2022/03/23 01:13:15;;;;;;;4.67;2.77;;;;;;;5.28;56.21;98176.56;6180440;23;20164;-86
2022/03/23 01:15:42;;;;;;;4.00;2.70;;;;;;;5.46;56.37;98181.56;6179945;23;20213;-89
2022/03/23 01:18:10;;;;;;;7.73;3.00;;;;;;;5.39;56.48;98194.47;6151103;23;20235;-92
2022/03/23 01:20:38;;;;;;;6.20;3.50;;;;;;;5.18;57.61;98156.09;6161557;23;20194;-92
2022/03/23 01:23:05;;;;;;;4.80;3.43;;;;;;;5.11;57.22;98149.31;6162181;23;20165;-94
2022/03/23 01:25:35;;;;;;;4.10;2.83;;;;;;;5.17;58.20;98146.72;6160622;23;20240;-92
2022/03/23 01:28:03;;;;;;;6.47;3.00;;;;;;;4.64;58.33;98063.22;6156712;23;20160;-88
2022/03/23 01:30:32;;;;;;;5.43;3.40;;;;;;;5.04;58.85;98157.91;6181284;23;20192;-86
2022/03/23 01:33:04;;;;;;;8.10;3.90;;;;;;;4.82;59.04;98119.53;6155987;23;20168;-89
2022/03/23 01:35:31;;;;;;;6.80;3.63;;;;;;;5.16;59.85;98150.13;6180351;23;20195;-86
2022/03/23 01:37:59;;;;;;;4.77;3.10;;;;;;;4.94;59.68;98116.06;6181667;23;20171;-86
2022/03/23 01:40:28;;;;;;;5.07;3.30;;;;;;;5.23;59.57;98162.94;6149967;23;20215;-85
2022/03/23 01:42:55;;;;;;;5.80;3.23;;;;;;;5.13;59.61;98175.84;6139602;23;20187;-86
2022/03/23 01:45:24;;;;;;;6.63;3.30;;;;;;;4.87;60.12;98133.19;6174722;23;20169;-86
2022/03/23 01:47:52;;;;;;;8.20;3.50;;;;;;;5.10;59.85;98168.13;6170282;23;20577;-87
2022/03/23 01:50:19;;;;;;;3.20;2.80;;;;;;;5.16;60.39;98157.81;6163729;23;20233;-86
2022/03/23 01:52:48;;;;;;;8.13;3.17;;;;;;;4.95;60.33;98135.72;6160610;23;20188;-85
2022/03/23 01:55:17;;;;;;;7.93;3.40;;;;;;;4.97;60.43;98141.69;6136639;23;20204;-87
2022/03/23 01:57:46;;;;;;;7.23;3.97;;;;;;;4.67;60.50;98098.25;6163299;23;20174;-84
2022/03/23 02:00:17;;;;;;;7.17;3.23;;;;;;;5.03;60.90;98179.31;6137872;23;20230;-84
2022/03/23 02:02:48;;;;;;;5.97;3.33;;;;;;;4.48;60.72;98089.81;6166725;23;20175;-85
2022/03/23 02:05:16;;;;;;;4.60;3.23;;;;;;;4.97;61.16;98174.22;6178373;23;20165;-89
2022/03/23 02:07:51;;;;;;;6.43;3.53;;;;;;;4.89;61.37;98151.16;6144061;23;20172;-93
2022/03/23 02:10:18;;;;;;;6.20;3.63;;;;;;;4.53;61.85;98111.16;6164468;23;20169;-95
2022/03/23 02:13:07;;;;;;;6.17;3.50;;;;;;;4.84;62.02;98148.59;6162887;23;20198;-94
2022/03/23 02:15:35;;;;;;;5.23;3.20;;;;;;;4.72;62.08;98158.94;6166274;23;20200;-92
2022/03/23 02:18:02;;;;;;;6.00;3.13;;;;;;;4.63;61.84;98151.31;6163442;23;20168;-92
2022/03/23 02:20:30;;;;;;;5.20;3.57;;;;;;;4.51;61.60;98133.41;6142578;23;20176;-90
2022/03/23 02:22:59;;;;;;;6.13;3.20;;;;;;;4.50;61.76;98126.56;6176500;23;20195;-88
2022/03/23 02:25:29;;;;;;;11.77;4.17;;;;;;;4.68;61.51;98167.50;6150915;23;20198;-89
2022/03/23 02:27:57;;;;;;;5.93;3.70;;;;;;;4.58;61.75;98136.78;6148173;23;20160;-91
2022/03/23 02:30:25;;;;;;;5.00;2.97;;;;;;;4.56;62.03;98130.78;6151869;23;20174;-94
2022/03/23 02:32:52;;;;;;;6.63;3.20;;;;;;;4.52;61.84;98124.84;6181847;23;20156;-85
2022/03/23 02:35:19;;;;;;;6.77;2.87;;;;;;;4.34;61.05;98096.72;6180901;23;20249;-89
2022/03/23 02:37:47;;;;;;;5.53;2.77;;;;;;;4.51;62.05;98145.38;6180432;23;20173;-88
2022/03/23 02:40:15;;;;;;;5.97;3.07;;;;;;;4.55;61.82;98154.75;6166752;23;20209;-93
2022/03/23 02:42:43;;;;;;;10.17;3.80;;;;;;;4.62;61.57;98157.28;6166746;23;20164;-94
2022/03/23 02:45:11;;;;;;;6.73;3.10;;;;;;;4.39;60.67;98137.72;6175423;23;20220;-94
2022/03/23 02:47:38;;;;;;;4.70;3.20;;;;;;;4.56;61.44;98167.56;6180731;23;20179;-91
2022/03/23 02:50:06;;;;;;;7.57;3.50;;;;;;;4.55;61.54;98160.75;6181371;23;20189;-95
2022/03/23 02:52:34;;;;;;;6.27;3.00;;;;;;;4.43;61.94;98139.44;6179569;23;20179;-95
2022/03/23 03:03:52;;;;;;;4.37;2.80;;;;;;;4.22;61.12;98126.69;6178077;23;20179;-88
2022/03/23 03:06:21;;;;;;;7.10;3.17;;;;;;;4.04;61.32;98079.75;6155735;23;20513;-87
2022/03/23 03:08:49;;;;;;;9.13;3.03;;;;;;;4.55;60.92;98160.75;6154260;23;20231;-87
2022/03/23 03:11:18;;;;;;;9.43;3.57;;;;;;;4.43;61.44;98140.25;6155282;23;20185;-87
2022/03/23 03:13:50;;;;;;;6.43;3.43;;;;;;;4.27;61.71;98112.97;6156057;23;20167;-86
2022/03/23 03:16:18;;;;;;;6.30;3.70;;;;;;;4.55;60.70;98163.31;6153940;23;20255;-86
2022/03/23 03:18:49;;;;;;;4.77;3.13;;;;;;;4.44;60.87;98162.50;6154742;23;20233;-88
2022/03/23 03:21:17;;;;;;;8.57;3.27;;;;;;;4.31;61.01;98116.41;6125929;23;20619;-85
2022/03/23 03:23:46;;;;;;;6.30;3.20;;;;;;;4.36;61.17;98133.47;6127077;23;20180;-86
2022/03/23 03:26:16;;;;;;;5.87;3.60;;;;;;;4.35;61.59;98126.63;6129465;23;20177;-86
2022/03/23 03:28:44;;;;;;;6.23;3.90;;;;;;;4.30;61.07;98130.94;6128784;23;20226;-88
2022/03/23 03:31:13;;;;;;;7.53;3.53;;;;;;;4.48;60.44;98153.94;6155204;23;20171;-86
2022/03/23 03:33:41;;;;;;;7.63;3.77;;;;;;;4.46;60.65;98165.91;6151967;23;20179;-86
2022/03/23 03:36:09;;;;;;;5.43;3.40;;;;;;;4.22;61.02;98124.97;6151519;23;20195;-88
2022/03/23 03:38:40;;;;;;;10.03;4.40;;;;;;;4.18;61.26;98118.16;6151062;23;20168;-86
2022/03/23 03:41:09;;;;;;;11.90;4.27;;;;;;;4.43;61.21;98160.78;6155222;23;20203;-86
2022/03/23 03:43:40;;;;;;;5.80;3.93;;;;;;;4.39;61.46;98169.34;6157104;23;20167;-86
2022/03/23 03:46:07;;;;;;;8.73;4.07;;;;;;;4.11;62.17;98126.72;6156335;23;20182;-86
2022/03/23 03:48:35;;;;;;;8.00;4.50;;;;;;;4.39;61.33;98156.50;6157137;23;20164;-86
2022/03/23 03:51:05;;;;;;;8.10;4.17;;;;;;;4.22;61.38;98130.09;6136186;23;20258;-85
2022/03/23 03:53:33;;;;;;;4.90;3.70;;;;;;;4.29;61.37;98154.84;6161584;23;20170;-86
2022/03/23 03:56:07;;;;;;;9.20;4.20;;;;;;;4.01;61.44;98089.16;6169998;23;20196;-84
2022/03/23 03:58:35;;;;;;;7.57;4.50;;;;;;;4.17;61.35;98116.44;6163984;23;20220;-86
2022/03/23 04:01:02;;;;;;;9.60;3.60;;;;;;;4.39;59.12;98137.72;6157072;23;20641;-86
2022/03/23 04:03:30;;;;;;;6.77;4.00;;;;;;;4.45;60.36;98122.31;6183196;23;20162;-85
2022/03/23 04:05:57;;;;;;;8.57;4.60;;;;;;;4.34;60.76;98134.31;6163969;23;20164;-85
2022/03/23 04:08:25;;;;;;;7.53;4.10;;;;;;;4.17;60.39;98111.31;6175252;23;20175;-86
2022/03/23 04:10:53;;;;;;;6.30;4.40;;;;;;;4.19;61.06;98108.72;6143262;23;20168;-91
2022/03/23 04:13:20;;;;;;;4.87;3.73;;;;;;;4.05;61.37;98090.84;6142915;23;20176;-87
2022/03/23 04:15:47;;;;;;;8.30;3.97;;;;;;;4.12;59.34;98098.50;6159354;23;20196;-89
2022/03/23 04:18:14;;;;;;;6.00;3.77;;;;;;;4.33;60.05;98133.47;6164257;23;20181;-90
2022/03/23 04:20:42;;;;;;;6.27;4.30;;;;;;;4.06;60.30;98097.66;6147516;23;20179;-90
2022/03/23 04:23:10;;;;;;;11.27;4.20;;;;;;;4.41;59.99;98141.16;6151361;23;20188;-88
2022/03/23 04:25:40;;;;;;;6.03;3.40;;;;;;;4.29;58.18;98116.38;6165421;23;20577;-86
2022/03/23 04:28:08;;;;;;;9.30;4.37;;;;;;;4.50;58.79;98151.34;6165340;23;20497;-86
2022/03/23 04:30:37;;;;;;;5.90;4.00;;;;;;;4.34;59.17;98140.31;6132560;23;20177;-86
2022/03/23 04:33:05;;;;;;;5.43;3.53;;;;;;;4.40;59.35;98140.28;6163210;23;20163;-86
2022/03/23 04:35:32;;;;;;;8.17;4.50;;;;;;;4.32;57.38;98116.38;6157825;23;20231;-87
2022/03/23 04:38:00;;;;;;;8.43;4.50;;;;;;;4.36;57.68;98123.22;6151620;23;20163;-86
2022/03/23 04:40:35;;;;;;;7.07;3.47;;;;;;;4.30;58.64;98115.53;6126960;23;20204;-88
2022/03/23 04:43:04;;;;;;;9.70;4.57;;;;;;;4.43;58.41;98135.13;6148366;23;20194;-85
2022/03/23 04:45:32;;;;;;;10.40;4.57;;;;;;;4.25;58.53;98114.69;6148316;23;20175;-89
2022/03/23 04:48:01;;;;;;;6.90;4.07;;;;;;;4.70;58.10;98142.69;6129248;23;20198;-85
2022/03/23 04:50:28;;;;;;;7.43;3.97;;;;;;;4.72;57.07;98138.41;6130143;23;20174;-87
2022/03/23 04:52:59;;;;;;;8.27;3.53;;;;;;;4.75;57.11;98127.28;6159418;23;20168;-86
2022/03/23 04:55:27;;;;;;;6.97;3.73;;;;;;;4.87;56.72;98122.06;6174525;23;20152;-85
2022/03/23 04:57:56;;;;;;;7.17;3.90;;;;;;;5.13;55.99;98150.16;6180215;23;20249;-84
2022/03/23 05:00:23;;;;;;;7.20;4.03;;;;;;;5.20;56.26;98157.81;6178158;23;20191;-85
2022/03/23 05:02:52;;;;;;;10.10;3.97;;;;;;;5.15;55.68;98140.72;6136695;23;20169;-85
2022/03/23 05:05:22;;;;;;;7.27;3.83;;;;;;;5.01;54.28;98119.44;6161127;23;20164;-87
2022/03/23 05:07:49;;;;;;;5.97;3.90;;;;;;;5.00;56.07;98118.59;6113240;23;20181;-91
2022/03/23 05:10:16;;;;;;;7.37;3.77;;;;;;;5.31;56.42;98168.00;6159394;23;20229;-87
2022/03/23 05:12:46;;;;;;;7.33;3.50;;;;;;;5.32;55.80;98177.41;6162721;23;20163;-88
2022/03/23 05:15:19;;;;;;;9.70;3.90;;;;;;;5.33;55.98;98164.56;6158006;23;20166;-93
2022/03/23 05:17:46;;;;;;;7.67;3.93;;;;;;;4.93;57.21;98109.22;6152831;23;20228;-88
2022/03/23 05:20:18;;;;;;;5.77;3.60;;;;;;;5.37;55.08;98173.09;6150376;23;20692;-90
2022/03/23 05:22:45;;;;;;;10.83;4.03;;;;;;;5.38;55.98;98167.94;6158779;23;20687;-88
2022/03/23 05:25:14;;;;;;;6.60;3.57;;;;;;;5.45;56.11;98186.72;6129153;23;20607;-86
2022/03/23 05:27:45;;;;;;;7.87;4.27;;;;;;;5.41;56.41;98157.66;6160882;23;20187;-91
2022/03/23 05:30:13;;;;;;;8.17;4.67;;;;;;;5.61;55.48;98186.59;6124786;23;20723;-86
2022/03/23 05:32:41;;;;;;;8.87;4.20;;;;;;;5.62;55.41;98164.34;6124730;23;20170;-87
2022/03/23 05:35:10;;;;;;;9.17;4.10;;;;;;;5.69;55.19;98174.53;6149363;23;20193;-86
2022/03/23 05:37:38;;;;;;;8.63;3.67;;;;;;;5.70;54.17;98171.13;6150698;23;20259;-90
2022/03/23 05:40:10;;;;;;;7.53;4.57;;;;;;;5.75;52.26;98164.22;6124885;23;20232;-91
2022/03/23 05:42:37;;;;;;;8.57;4.50;;;;;;;5.85;53.77;98177.03;6154493;23;20190;-89
2022/03/23 05:45:08;;;;;;;6.63;4.37;;;;;;;5.79;53.59;98167.59;6155155;23;20176;-93
2022/03/23 05:47:37;;;;;;;8.90;4.53;;;;;;;5.96;52.50;98178.63;6134332;23;20166;-90
2022/03/23 05:50:23;;;;;;;9.70;5.37;;;;;;;5.91;53.71;98170.13;6139466;23;20184;-94
2022/03/23 05:52:50;;;;;;;8.73;3.90;;;;;;;6.00;51.65;98184.56;6109127;23;20184;-93
2022/03/23 05:55:18;;;;;;;9.33;4.17;;;;;;;5.92;52.15;98150.38;6129668;23;20172;-87
2022/03/23 05:57:45;;;;;;;8.33;5.53;;;;;;;6.16;53.17;98186.97;6155042;23;20201;-87
2022/03/23 06:00:15;;;;;;;6.00;4.13;;;;;;;6.27;51.33;98189.44;6150636;23;20168;-86
2022/03/23 06:02:47;;;;;;;6.57;4.73;;;;;;;6.20;50.64;98160.38;6151067;23;20169;-86
2022/03/23 06:05:16;;;;;;;5.50;3.87;;;;;;;6.42;49.92;98203.00;6151098;23;20254;-88
2022/03/23 06:07:47;;;;;;;5.30;3.87;;;;;;;6.29;48.58;98178.28;6150530;23;20177;-86
2022/03/23 06:10:16;;;;;;;12.63;4.80;;;;;;;6.39;49.66;98156.72;6126903;23;20562;-86
2022/03/23 06:12:43;;;;;;;8.13;3.73;;;;;;;6.72;49.57;98214.66;6153772;23;20531;-85
2022/03/23 06:15:11;;;;;;;8.10;4.83;;;;;;;6.58;49.95;98189.09;6158800;23;20655;-85
2022/03/23 06:17:40;;;;;;;5.97;3.90;;;;;;;6.63;49.76;98201.91;6164976;23;20201;-87
2022/03/23 06:20:10;;;;;;;7.77;4.67;;;;;;;6.64;49.88;98190.75;6168924;23;20252;-88
2022/03/23 06:22:37;;;;;;;6.73;4.00;;;;;;;6.51;48.37;98179.72;6174401;23;20167;-84
2022/03/23 06:25:10;;;;;;;11.67;4.03;;;;;;;6.55;47.06;98196.84;6170870;23;20246;-86
2022/03/23 06:27:38;;;;;;;11.83;5.53;;;;;;;6.65;47.97;98182.16;6140561;23;20189;-86
2022/03/23 06:30:08;;;;;;;11.73;5.37;;;;;;;6.70;48.61;98159.78;6139310;23;20177;-86
2022/03/23 06:32:36;;;;;;;10.30;3.33;;;;;;;6.67;47.96;98190.72;6135224;23;20603;-86
2022/03/23 06:35:03;;;;;;;7.53;4.23;;;;;;;6.45;48.76;98172.09;6152605;23;20171;-89
2022/03/23 06:37:30;;;;;;;5.43;4.10;;;;;;;6.60;48.13;98217.38;6153042;23;20207;-91
2022/03/23 06:39:59;;;;;;;5.57;3.83;;;;;;;6.61;46.81;98210.53;6155219;23;20226;-87
2022/03/23 06:42:29;;;;;;;7.47;4.40;;;;;;;6.84;47.66;98198.25;6156688;23;20191;-91
2022/03/23 06:45:05;;;;;;;8.67;3.90;;;;;;;6.96;46.30;98192.94;6129921;23;20693;-87
2022/03/23 06:47:32;;;;;;;7.77;3.90;;;;;;;6.86;46.19;98175.91;6151984;23;20170;-87
2022/03/23 06:50:03;;;;;;;12.63;3.90;;;;;;;6.93;46.00;98206.69;6151337;23;20167;-86
2022/03/23 06:52:31;;;;;;;4.83;3.27;;;;;;;7.12;43.42;98194.41;6151633;23;20185;-87
2022/03/23 06:55:00;;;;;;;7.20;3.50;;;;;;;7.14;44.63;98197.81;6155301;23;20176;-95
2022/03/23 06:57:27;;;;;;;5.00;3.30;;;;;;;7.30;43.79;98176.97;6154764;23;20203;-93
2022/03/23 06:59:56;;;;;;;7.03;3.53;;;;;;;7.19;44.59;98160.00;6156048;23;20504;-87
2022/03/23 07:02:24;;;;;;;5.63;3.13;;;;;;;7.41;45.08;98197.44;6132718;23;20229;-92
2022/03/23 07:04:53;;;;;;;7.30;3.73;;;;;;;7.31;44.03;98185.56;6163017;23;20214;-92
2022/03/23 07:07:22;;;;;;;6.53;3.37;;;;;;;6.74;45.07;98142.59;6164838;23;20177;-91
2022/03/23 07:09:49;;;;;;;4.50;3.30;;;;;;;7.06;44.70;98176.47;6160953;23;20167;-91
2022/03/23 07:12:18;;;;;;;4.70;3.20;;;;;;;7.34;44.63;98185.50;6136287;23;20643;-93
2022/03/23 07:14:48;;;;;;;5.97;3.57;;;;;;;7.56;42.82;98204.09;6159490;23;20166;-86
2022/03/23 07:17:17;;;;;;;8.13;3.07;;;;;;;7.36;43.02;98194.06;6135118;23;20213;-88
2022/03/23 07:19:46;;;;;;;6.20;3.20;;;;;;;7.01;42.50;98119.88;6160879;23;20233;-87
2022/03/23 07:22:18;;;;;;;7.37;4.00;;;;;;;7.42;44.24;98193.97;6162607;23;20191;-86
2022/03/23 07:24:46;;;;;;;13.37;6.03;;;;;;;7.55;42.62;98197.22;6163098;23;20233;-87
2022/03/23 07:27:13;;;;;;;10.17;4.93;;;;;;;7.51;41.97;98152.59;6153471;23;20178;-92
2022/03/23 07:29:48;;;;;;;8.77;4.67;;;;;;;7.73;41.42;98205.53;6153568;23;20230;-90
2022/03/23 07:32:27;;;;;;;8.53;3.60;;;;;;;7.58;43.59;98207.50;6154441;23;20168;-91
2022/03/23 07:35:00;;;;;;;6.43;3.77;;;;;;;7.35;44.17;98161.47;6155278;23;20811;-89
2022/03/23 07:37:33;;;;;;;5.97;3.40;;;;;;;7.56;42.93;98175.75;6157043;23;20216;-86
2022/03/23 07:40:01;;;;;;;10.33;3.93;;;;;;;7.95;42.66;98186.25;6156237;23;20183;-93
2022/03/23 07:42:30;;;;;;;5.20;3.47;;;;;;;7.90;42.99;98176.88;6129001;23;20168;-89
2022/03/23 07:44:59;;;;;;;5.80;3.37;;;;;;;7.62;42.15;98191.97;6097635;23;20171;-91
2022/03/23 07:47:32;;;;;;;7.23;3.90;;;;;;;7.18;44.41;98160.84;6102253;23;20194;-94
2022/03/23 07:50:00;;;;;;;4.73;3.40;;;;;;;7.40;42.01;98185.41;6131016;23;20168;-91
2022/03/23 07:52:29;;;;;;;5.67;4.03;;;;;;;7.54;44.27;98168.03;6108167;23;20186;-92
2022/03/23 07:54:56;;;;;;;8.90;3.40;;;;;;;7.72;42.63;98178.06;6131237;23;20244;-92
2022/03/23 07:57:24;;;;;;;6.23;3.83;;;;;;;7.89;42.09;98176.03;6128842;23;20197;-91
2022/03/23 07:59:55;;;;;;;10.13;4.97;;;;;;;8.00;43.43;98197.34;6130203;23;20168;-93
2022/03/23 08:02:24;;;;;;;11.40;5.57;;;;;;;7.70;42.63;98200.44;6128573;23;20177;-90
2022/03/23 08:04:55;;;;;;;6.17;3.63;;;;;;;7.43;44.22;98153.59;6128101;23;20262;-92
2022/03/23 08:07:23;;;;;;;10.00;4.97;;;;;;;7.55;44.91;98202.38;6126060;23;20168;-91
2022/03/23 08:09:52;;;;;;;8.83;4.60;;;;;;;7.64;43.06;98190.22;6127599;23;20199;-88
2022/03/23 08:12:20;;;;;;;9.73;4.30;;;;;;;7.66;43.64;98166.97;6104460;23;20514;-93
2022/03/23 08:14:52;;;;;;;7.27;3.90;;;;;;;6.91;43.91;98096.84;6137510;23;20689;-90
2022/03/23 08:17:22;;;;;;;8.40;4.77;;;;;;;7.11;43.95;98149.78;6101639;23;20207;-90
2022/03/23 08:22:51;;;;;;;7.60;3.87;;;;;;;7.55;42.37;98180.03;6127279;23;20683;-91
2022/03/23 08:25:28;;;;;;;8.50;3.83;;;;;;;7.84;41.37;98156.34;6130096;23;20164;-90
2022/03/23 08:28:16;;;;;;;4.80;3.47;;;;;;;7.93;42.01;98146.72;6108719;23;20195;-94
2022/03/23 08:30:52;;;;;;;4.33;3.40;;;;;;;7.94;40.61;98130.38;6133448;23;20167;-87
2022/03/23 08:33:26;;;;;;;8.00;3.50;;;;;;;7.75;39.99;98123.84;6073986;23;20176;-92
2022/03/23 08:36:01;;;;;;;7.83;4.10;;;;;;;8.02;42.64;98156.88;6098803;23;20191;-95
2022/03/23 08:38:29;;;;;;;5.73;3.23;;;;;;;7.95;39.98;98120.91;6126049;23;20200;-92
2022/03/23 08:40:58;;;;;;;8.20;3.37;;;;;;;8.21;40.30;98141.91;6144078;23;20206;-92
2022/03/23 08:43:27;;;;;;;4.90;3.10;;;;;;;8.40;39.18;98142.44;6127204;23;20250;-91
2022/03/23 08:45:56;;;;;;;7.83;3.77;;;;;;;8.22;37.85;98136.72;6152524;23;20614;-92
2022/03/23 08:48:25;;;;;;;8.27;2.80;;;;;;;8.02;39.94;98145.72;6101464;23;20175;-92
2022/03/23 08:50:52;;;;;;;6.47;3.40;;;;;;;8.38;38.51;98144.22;6125539;23;20789;-90
2022/03/23 08:53:20;;;;;;;4.87;3.03;;;;;;;8.19;39.59;98100.69;6151569;23;20167;-92
2022/03/23 08:55:47;;;;;;;9.90;3.53;;;;;;;8.30;39.36;98109.97;6151588;23;20174;-89
2022/03/23 08:58:15;;;;;;;9.40;3.90;;;;;;;8.57;38.63;98119.75;6149845;23;20205;-94
2022/03/23 09:00:45;;;;;;;4.50;3.20;;;;;;;8.35;35.73;98080.59;6153808;23;20178;-94
2022/03/23 09:03:13;;;;;;;2.90;2.60;;;;;;;8.42;36.31;98073.59;6154873;23;20175;-90
2022/03/23 09:05:41;;;;;;;5.73;3.07;;;;;;;8.60;36.65;98083.53;6157513;23;20243;-92
2022/03/23 09:08:10;;;;;;;5.03;3.23;;;;;;;8.61;35.57;98106.75;6162105;23;20247;-91
2022/03/23 09:10:39;;;;;;;5.23;3.50;;;;;;;8.67;35.24;98085.09;6129034;23;20186;-92
2022/03/23 09:13:07;;;;;;;7.47;3.70;;;;;;;8.67;35.54;98100.59;6150280;23;20179;-96
2022/03/23 09:15:37;;;;;;;3.10;2.80;;;;;;;8.75;34.03;98083.19;6125939;23;20175;-94
2022/03/23 09:18:06;;;;;;;4.93;3.20;;;;;;;8.91;34.35;98095.75;6154843;23;20332;-89
2022/03/23 09:20:35;;;;;;;14.17;3.00;;;;;;;8.52;33.61;98067.34;6154698;23;20649;-91
2022/03/23 09:23:03;;;;;;;5.80;3.10;;;;;;;8.82;34.26;98069.28;6103443;23;20472;-94
2022/03/23 09:25:31;;;;;;;4.37;3.13;;;;;;;8.80;34.89;98071.00;6127687;23;21112;-91
2022/03/23 09:27:59;;;;;;;4.57;3.07;;;;;;;8.85;32.87;98087.28;6130802;23;20250;-93
2022/03/23 09:30:26;;;;;;;6.27;3.07;;;;;;;9.07;33.84;98078.16;6154842;23;20171;-93
2022/03/23 09:32:57;;;;;;;5.37;3.07;;;;;;;8.99;32.74;98078.34;6153714;23;20167;-95
2022/03/23 09:35:25;;;;;;;4.77;3.20;;;;;;;8.96;32.89;98070.63;6153323;23;20178;-94
2022/03/23 09:37:56;;;;;;;4.23;3.00;;;;;;;8.81;33.22;98062.41;6153169;23;20222;-93
2022/03/23 09:40:36;;;;;;;4.13;2.77;;;;;;;8.84;33.61;98093.34;6152038;23;20211;-94
2022/03/23 09:43:11;;;;;;;6.57;2.97;;;;;;;9.24;32.25;98148.38;6155323;23;20170;-92
2022/03/23 09:48:11;;;;;;;6.00;2.67;;;;;;;9.22;32.00;98126.91;6129641;23;20183;-95
2022/03/23 09:50:42;;;;;;;3.87;2.83;;;;;;;9.52;31.53;98127.94;6153083;23;20598;-91
2022/03/23 09:53:13;;;;;;;4.87;3.00;;;;;;;9.47;30.79;98112.50;6156071;23;20168;-93
2022/03/23 09:55:43;;;;;;;6.57;2.83;;;;;;;9.28;31.44;98134.50;6104316;23;20172;-94
2022/03/23 09:58:12;;;;;;;2.93;2.33;;;;;;;8.74;31.24;98110.75;6155706;23;20215;-89
2022/03/23 10:00:42;;;;;;;4.73;3.50;;;;;;;9.25;32.55;98132.00;6151232;23;20267;-91
2022/03/23 10:03:11;;;;;;;5.73;3.23;;;;;;;9.25;32.13;98132.00;6154185;23;20171;-93
2022/03/23 10:05:51;;;;;;;4.00;3.00;;;;;;;9.66;31.89;98120.66;6127454;23;20171;-87
2022/03/23 10:08:34;;;;;;;5.90;2.87;;;;;;;9.81;31.64;98118.53;6152873;23;20164;-95
2022/03/23 10:11:18;;;;;;;7.47;3.17;;;;;;;9.99;31.05;98108.59;6173001;23;20175;-87
2022/03/23 10:14:02;;;;;;;6.70;4.27;;;;;;;10.02;31.13;98121.44;6161304;23;20172;-87
2022/03/23 10:17:06;;;;;;;4.33;3.27;;;;;;;9.59;29.23;98126.88;6161881;23;20174;-86
2022/03/23 10:19:44;;;;;;;4.97;3.20;;;;;;;9.50;30.87;98120.19;6096110;23;20187;-87
2022/03/23 10:22:26;;;;;;;5.97;3.07;;;;;;;10.09;31.12;98117.81;6151504;23;20167;-87
2022/03/23 10:25:10;;;;;;;4.03;3.20;;;;;;;10.28;31.89;98113.88;6180008;23;20167;-86
2022/03/23 10:27:39;;;;;;;4.60;3.80;;;;;;;9.93;31.05;98085.50;6153388;23;20559;-85
2022/03/23 10:30:12;;;;;;;5.83;3.47;;;;;;;9.88;30.16;98061.47;6176131;23;20176;-88
2022/03/23 10:32:42;;;;;;;6.97;3.40;;;;;;;9.71;30.54;98096.38;6153392;23;20156;-88
2022/03/23 10:35:14;;;;;;;4.37;3.07;;;;;;;9.91;31.34;98113.13;6176674;23;20172;-87
2022/03/23 10:37:43;;;;;;;6.13;3.50;;;;;;;10.16;32.12;98089.16;6150887;23;20207;-87
2022/03/23 10:40:18;;;;;;;7.97;2.97;;;;;;;9.82;30.74;98053.00;6174179;23;20246;-89
2022/03/23 10:42:48;;;;;;;5.30;3.30;;;;;;;9.90;31.35;98101.06;6176641;23;20199;-87
2022/03/23 10:45:20;;;;;;;9.37;5.40;;;;;;;9.84;31.39;98077.09;6172810;23;20195;-86
2022/03/23 10:47:49;;;;;;;9.17;4.30;;;;;;;9.78;31.37;98030.69;6148641;23;20230;-88
2022/03/23 10:50:22;;;;;;;5.53;3.50;;;;;;;10.23;31.68;98082.09;6173078;23;20224;-87
2022/03/23 10:53:04;;;;;;;5.50;3.20;;;;;;;10.28;30.72;98099.19;6145733;23;20209;-88
2022/03/23 10:55:47;;;;;;;5.87;3.20;;;;;;;10.43;31.29;98087.56;6121692;23;20202;-86
2022/03/23 10:58:44;;;;;;;4.43;3.27;;;;;;;10.01;31.85;98001.59;6172802;23;20225;-87
2022/03/23 11:01:17;;;;;;;4.87;3.43;;;;;;;10.39;31.77;98065.22;6143597;23;20658;-86
2022/03/23 11:03:48;;;;;;;5.40;3.17;;;;;;;10.22;32.14;98044.16;6148907;23;20194;-87
2022/03/23 11:06:27;;;;;;;6.63;2.93;;;;;;;10.23;32.38;98080.34;6150084;23;20176;-87
2022/03/23 11:15:45;;;;;;;7.60;3.80;;;;;;;10.46;32.44;98059.84;6152755;23;20168;-87
2022/03/23 11:18:17;;;;;;;4.17;3.40;;;;;;;9.91;31.54;98026.03;6144795;23;20203;-87
2022/03/23 11:20:56;;;;;;;6.20;3.10;;;;;;;10.25;31.63;98031.13;6178164;23;20187;-89
2022/03/23 11:23:37;;;;;;;5.73;3.37;;;;;;;10.06;31.61;98071.31;6153789;23;20178;-87
2022/03/23 11:26:10;;;;;;;4.53;2.90;;;;;;;10.04;31.04;98084.31;6178065;23;20160;-86
2022/03/23 11:28:43;;;;;;;5.83;3.40;;;;;;;10.14;31.29;98072.00;6151863;23;20164;-87
2022/03/23 11:31:16;;;;;;;5.37;3.67;;;;;;;10.11;32.07;98056.56;6149154;23;20200;-86
2022/03/23 11:33:53;;;;;;;6.80;3.57;;;;;;;10.47;32.93;98034.78;6150330;23;20167;-90
2022/03/23 11:36:23;;;;;;;4.57;3.30;;;;;;;10.40;32.33;98028.09;6175976;23;20322;-88
2022/03/23 11:39:00;;;;;;;6.50;3.47;;;;;;;10.25;33.83;98036.31;6148946;23;20274;-86
2022/03/23 11:41:38;;;;;;;5.67;3.13;;;;;;;10.52;33.36;98057.09;6176991;23;20249;-87
2022/03/23 11:44:07;;;;;;;5.53;3.30;;;;;;;10.67;33.09;98035.06;6175549;23;20167;-86
2022/03/23 11:46:34;;;;;;;7.10;3.60;;;;;;;11.05;32.49;98020.88;6177748;23;20163;-88
2022/03/23 11:49:33;;;;;;;4.90;3.73;;;;;;;10.89;32.10;98005.00;6177048;23;20172;-89
2022/03/23 11:52:27;;;;;;;3.93;3.17;;;;;;;11.32;31.65;98062.34;6149403;23;20177;-87
2022/03/23 11:55:40;;;;;;;6.67;3.70;;;;;;;10.55;30.75;97975.88;6148621;23;20174;-86
2022/03/23 11:58:21;;;;;;;7.57;3.43;;;;;;;11.20;30.38;98035.97;6177361;23;20220;-88
2022/03/23 12:01:07;;;;;;;3.47;3.00;;;;;;;10.84;29.44;98043.13;6176175;23;20177;-87
2022/03/23 12:04:04;;;;;;;5.87;2.93;;;;;;;10.65;29.96;98014.34;6152816;23;20173;-89
2022/03/23 12:06:41;;;;;;;5.17;3.53;;;;;;;10.79;29.82;97972.50;6151092;23;20195;-87
2022/03/23 12:09:32;;;;;;;5.77;3.27;;;;;;;11.18;29.34;98023.06;6153343;23;20171;-89
2022/03/23 12:12:03;;;;;;;6.00;3.83;;;;;;;11.06;29.89;98031.22;6178153;23;20171;-88
2022/03/23 12:14:40;;;;;;;4.33;3.07;;;;;;;10.88;30.21;98010.22;6156728;23;20842;-93
2022/03/23 12:17:10;;;;;;;4.67;3.67;;;;;;;10.80;30.27;97976.78;6100919;23;20177;-94